createdAt,value
2016-12-29T00:00:17.046Z,2.81
2016-12-29T00:01:17.162Z,2.81
2016-12-29T00:02:16.914Z,2.88
2016-12-29T00:03:17.155Z,2.79
2016-12-29T00:04:17.109Z,2.77
2016-12-29T00:05:17.253Z,2.84
2016-12-29T00:06:16.913Z,2.73
2016-12-29T00:07:16.902Z,2.7
2016-12-29T00:08:16.983Z,2.56
2016-12-29T00:09:16.917Z,2.69
2016-12-29T00:10:16.894Z,2.64
2016-12-29T00:11:16.915Z,2.64
2016-12-29T00:12:16.937Z,2.55
2016-12-29T00:13:16.903Z,2.49
2016-12-29T00:14:16.906Z,2.38
2016-12-29T00:15:16.896Z,2.33
2016-12-29T00:16:16.892Z,2.3
2016-12-29T00:17:16.940Z,2.34
2016-12-29T00:18:16.951Z,2.26
2016-12-29T00:19:16.894Z,2.45
2016-12-29T00:20:16.899Z,2.33
2016-12-29T00:21:16.897Z,2.16
2016-12-29T00:22:16.886Z,2.27
2016-12-29T00:23:16.963Z,2.35
2016-12-29T00:24:16.899Z,2.22
2016-12-29T00:25:16.903Z,2.26
2016-12-29T00:26:16.915Z,2.26
2016-12-29T00:27:16.932Z,2.16
2016-12-29T00:28:16.962Z,2.12
2016-12-29T00:29:16.930Z,2.1
2016-12-29T00:30:16.938Z,2.16
2016-12-29T00:31:16.945Z,2.04
2016-12-29T00:32:16.942Z,1.99
2016-12-29T00:33:18.414Z,2.09
2016-12-29T00:34:16.929Z,1.91
2016-12-29T00:35:16.922Z,2.01
2016-12-29T00:36:16.959Z,1.94
2016-12-29T00:37:16.962Z,1.91
2016-12-29T00:38:17.853Z,1.93
2016-12-29T00:39:17.007Z,1.9
2016-12-29T00:40:16.901Z,1.82
2016-12-29T00:41:16.911Z,1.76
2016-12-29T00:42:16.922Z,1.85
2016-12-29T00:43:16.925Z,1.78
2016-12-29T00:44:16.920Z,1.73
2016-12-29T00:45:16.898Z,1.65
2016-12-29T00:46:16.920Z,1.64
2016-12-29T00:47:16.912Z,1.65
2016-12-29T00:48:16.919Z,1.69
2016-12-29T00:49:17.027Z,1.68
2016-12-29T00:50:17.007Z,1.61
2016-12-29T00:51:16.980Z,1.54
2016-12-29T00:52:16.932Z,1.5
2016-12-29T00:53:17.083Z,1.42
2016-12-29T00:54:16.931Z,1.43
2016-12-29T00:55:16.953Z,1.47
2016-12-29T00:56:17.573Z,1.34
2016-12-29T00:57:16.966Z,1.37
2016-12-29T00:58:17.645Z,1.39
2016-12-29T00:59:16.935Z,1.32
2016-12-29T01:00:17.178Z,1.36
2016-12-29T01:01:16.936Z,1.28
2016-12-29T01:02:17.001Z,1.34
2016-12-29T01:03:17.384Z,1.46
2016-12-29T01:04:16.957Z,1.19
2016-12-29T01:05:16.956Z,1.24
2016-12-29T01:06:17.044Z,1.15
2016-12-29T01:07:16.941Z,1.16
2016-12-29T01:08:16.977Z,1.16
2016-12-29T01:09:16.942Z,1.08
2016-12-29T01:10:16.915Z,1.15
2016-12-29T01:11:16.927Z,1.1
2016-12-29T01:12:16.945Z,1.04
2016-12-29T01:13:16.953Z,1.01
2016-12-29T01:14:16.919Z,1.08
2016-12-29T01:15:16.921Z,0.97
2016-12-29T01:16:16.933Z,1.07
2016-12-29T01:17:16.932Z,1.04
2016-12-29T01:18:16.957Z,0.96
2016-12-29T01:19:16.934Z,0.92
2016-12-29T01:20:17.389Z,0.79
2016-12-29T01:21:16.964Z,0.92
2016-12-29T01:22:16.940Z,0.89
2016-12-29T01:23:17.298Z,0.78
2016-12-29T01:24:17.276Z,0.88
2016-12-29T01:25:16.997Z,0.83
2016-12-29T01:26:16.941Z,0.86
2016-12-29T01:27:16.993Z,0.83
2016-12-29T01:28:17.151Z,0.79
2016-12-29T01:29:16.968Z,0.75
2016-12-29T01:30:17.104Z,0.79
2016-12-29T01:31:17.309Z,0.75
2016-12-29T01:32:16.977Z,0.68
2016-12-29T01:33:17.065Z,0.89
2016-12-29T01:34:17.028Z,0.71
2016-12-29T01:35:16.977Z,0.68
2016-12-29T01:36:17.032Z,0.75
2016-12-29T01:37:16.997Z,0.68
2016-12-29T01:38:17.011Z,0.68
2016-12-29T01:39:17.010Z,0.67
2016-12-29T01:40:16.973Z,0.58
2016-12-29T01:41:17.044Z,0.58
2016-12-29T01:42:17.589Z,0.6
2016-12-29T01:43:17.031Z,0.49
2016-12-29T01:44:17.009Z,0.52
2016-12-29T01:45:17.029Z,0.53
2016-12-29T01:46:17.028Z,0.51
2016-12-29T01:47:17.000Z,0.41
2016-12-29T01:48:16.995Z,0.51
2016-12-29T01:49:16.968Z,0.48
2016-12-29T01:50:16.962Z,0.46
2016-12-29T01:51:16.939Z,0.42
2016-12-29T01:52:16.962Z,0.45
2016-12-29T01:53:16.983Z,0.51
2016-12-29T01:54:16.962Z,0.45
2016-12-29T01:55:16.954Z,0.43
2016-12-29T01:56:16.962Z,0.43
2016-12-29T01:57:16.973Z,0.49
2016-12-29T01:58:16.988Z,0.41
2016-12-29T01:59:17.016Z,0.45
2016-12-29T02:00:16.978Z,0.43
2016-12-29T02:01:16.970Z,0.41
2016-12-29T02:02:16.963Z,0.41
2016-12-29T02:03:16.969Z,0.42
2016-12-29T02:04:16.977Z,0.48
2016-12-29T02:05:16.969Z,0.48
2016-12-29T02:06:16.977Z,0.45
2016-12-29T02:07:16.963Z,0.34
2016-12-29T02:08:16.997Z,0.3
2016-12-29T02:09:16.968Z,0.15
2016-12-29T02:10:16.985Z,0.31
2016-12-29T02:11:17.010Z,0.24
2016-12-29T02:12:16.986Z,0.27
2016-12-29T02:13:16.999Z,0.21
2016-12-29T02:14:16.971Z,0.33
2016-12-29T02:15:16.990Z,0.28
2016-12-29T02:16:16.956Z,0.16
2016-12-29T02:17:16.978Z,0.21
2016-12-29T02:18:16.997Z,0.16
2016-12-29T02:19:16.962Z,0.24
2016-12-29T02:20:16.972Z,0.25
2016-12-29T02:21:16.976Z,0.24
2016-12-29T02:22:17.037Z,0.2
2016-12-29T02:23:16.991Z,0.18
2016-12-29T02:24:17.011Z,0.16
2016-12-29T02:25:16.977Z,0.06
2016-12-29T02:26:16.994Z,0.2
2016-12-29T02:27:16.974Z,0.23
2016-12-29T02:28:16.995Z,0.18
2016-12-29T02:29:16.971Z,0.1
2016-12-29T02:30:16.979Z,0.02
2016-12-29T02:31:16.977Z,0.16
2016-12-29T02:32:16.995Z,0.1
2016-12-29T02:33:17.006Z,0.13
2016-12-29T02:34:17.011Z,0
2016-12-29T02:35:17.003Z,-0.01
2016-12-29T02:36:16.981Z,0.15
2016-12-29T02:37:17.014Z,0.05
2016-12-29T02:38:17.209Z,-0.04
2016-12-29T02:39:17.001Z,-0.08
2016-12-29T02:40:17.039Z,-0.08
2016-12-29T02:41:16.992Z,-0.09
2016-12-29T02:42:16.997Z,-0.12
2016-12-29T02:43:17.006Z,-0.05
2016-12-29T02:44:16.998Z,-0.05
2016-12-29T02:45:17.000Z,-0.09
2016-12-29T02:46:17.002Z,-0.11
2016-12-29T02:47:16.992Z,-0.13
2016-12-29T02:48:17.023Z,-0.05
2016-12-29T02:49:16.997Z,-0.22
2016-12-29T02:50:17.007Z,-0.19
2016-12-29T02:51:16.997Z,-0.19
2016-12-29T02:52:16.993Z,-0.19
2016-12-29T02:53:17.092Z,-0.22
2016-12-29T02:54:17.042Z,-0.16
2016-12-29T02:55:17.008Z,-0.13
2016-12-29T02:56:17.058Z,-0.19
2016-12-29T02:57:16.994Z,-0.15
2016-12-29T02:58:17.014Z,-0.19
2016-12-29T02:59:16.994Z,-0.29
2016-12-29T03:00:17.001Z,-0.3
2016-12-29T03:01:17.008Z,-0.22
2016-12-29T03:02:17.013Z,-0.19
2016-12-29T03:03:17.042Z,-0.26
2016-12-29T03:04:17.036Z,-0.19
2016-12-29T03:05:17.008Z,-0.36
2016-12-29T03:06:17.018Z,-0.18
2016-12-29T03:07:16.992Z,-0.26
2016-12-29T03:08:17.042Z,-0.19
2016-12-29T03:09:17.035Z,-0.13
2016-12-29T03:10:16.996Z,-0.12
2016-12-29T03:11:17.018Z,-0.13
2016-12-29T03:12:17.010Z,-0.15
2016-12-29T03:13:17.032Z,-0.22
2016-12-29T03:14:17.014Z,-0.16
2016-12-29T03:15:17.046Z,-0.01
2016-12-29T03:16:17.056Z,-0.26
2016-12-29T03:17:17.037Z,-0.12
2016-12-29T03:18:17.078Z,-0.13
2016-12-29T03:19:17.072Z,-0.15
2016-12-29T03:20:17.019Z,-0.18
2016-12-29T03:21:17.028Z,-0.22
2016-12-29T03:22:17.007Z,-0.13
2016-12-29T03:23:17.041Z,-0.23
2016-12-29T03:24:17.015Z,-0.26
2016-12-29T03:25:17.006Z,-0.23
2016-12-29T03:26:17.003Z,-0.3
2016-12-29T03:27:17.019Z,-0.41
2016-12-29T03:28:17.056Z,-0.29
2016-12-29T03:29:17.013Z,-0.39
2016-12-29T03:30:17.025Z,-0.31
2016-12-29T03:31:17.018Z,-0.37
2016-12-29T03:32:17.025Z,-0.47
2016-12-29T03:33:17.062Z,-0.33
2016-12-29T03:34:17.025Z,-0.39
2016-12-29T03:35:17.061Z,-0.47
2016-12-29T03:36:17.054Z,-0.44
2016-12-29T03:37:17.054Z,-0.45
2016-12-29T03:38:17.056Z,-0.33
2016-12-29T03:39:17.022Z,-0.45
2016-12-29T03:40:17.029Z,-0.47
2016-12-29T03:41:17.014Z,-0.44
2016-12-29T03:42:17.018Z,-0.41
2016-12-29T03:43:17.044Z,-0.42
2016-12-29T03:44:17.039Z,-0.39
2016-12-29T03:45:17.027Z,-0.45
2016-12-29T03:46:17.046Z,-0.31
2016-12-29T03:47:17.045Z,-0.45
2016-12-29T03:48:17.045Z,-0.42
2016-12-29T03:49:17.095Z,-0.48
2016-12-29T03:50:17.051Z,-0.45
2016-12-29T03:51:17.066Z,-0.37
2016-12-29T03:52:17.039Z,-0.51
2016-12-29T03:53:17.061Z,-0.54
2016-12-29T03:54:17.042Z,-0.44
2016-12-29T03:55:17.063Z,-0.54
2016-12-29T03:56:17.051Z,-0.31
2016-12-29T03:57:17.069Z,-0.37
2016-12-29T03:58:17.071Z,-0.48
2016-12-29T03:59:17.062Z,-0.34
2016-12-29T04:00:17.063Z,-0.45
2016-12-29T04:01:17.141Z,-0.52
2016-12-29T04:02:17.060Z,-0.41
2016-12-29T04:03:17.038Z,-0.44
2016-12-29T04:04:17.045Z,-0.39
2016-12-29T04:05:17.021Z,-0.36
2016-12-29T04:06:17.027Z,-0.51
2016-12-29T04:07:17.037Z,-0.41
2016-12-29T04:08:17.038Z,-0.41
2016-12-29T04:09:17.063Z,-0.51
2016-12-29T04:10:17.051Z,-0.37
2016-12-29T04:11:17.033Z,-0.39
2016-12-29T04:12:17.042Z,-0.42
2016-12-29T04:13:17.067Z,-0.39
2016-12-29T04:14:17.037Z,-0.47
2016-12-29T04:15:17.061Z,-0.41
2016-12-29T04:16:17.065Z,-0.39
2016-12-29T04:17:17.064Z,-0.44
2016-12-29T04:18:17.066Z,-0.39
2016-12-29T04:19:17.047Z,-0.6
2016-12-29T04:20:17.054Z,-0.44
2016-12-29T04:21:17.055Z,-0.37
2016-12-29T04:22:17.046Z,-0.45
2016-12-29T04:23:17.069Z,-0.42
2016-12-29T04:24:17.059Z,-0.45
2016-12-29T04:25:17.053Z,-0.41
2016-12-29T04:26:17.073Z,-0.59
2016-12-29T04:27:17.055Z,-0.51
2016-12-29T04:28:17.072Z,-0.65
2016-12-29T04:29:17.108Z,-0.54
2016-12-29T04:30:17.056Z,-0.63
2016-12-29T04:31:17.062Z,-0.45
2016-12-29T04:32:17.055Z,-0.55
2016-12-29T04:33:17.090Z,-0.54
2016-12-29T04:34:17.041Z,-0.65
2016-12-29T04:35:17.107Z,-0.44
2016-12-29T04:36:17.062Z,-0.6
2016-12-29T04:37:17.061Z,-0.57
2016-12-29T04:38:17.067Z,-0.57
2016-12-29T04:39:17.074Z,-0.57
2016-12-29T04:40:17.069Z,-0.51
2016-12-29T04:41:17.102Z,-0.51
2016-12-29T04:42:17.068Z,-0.48
2016-12-29T04:43:17.086Z,-0.7
2016-12-29T04:44:17.082Z,-0.57
2016-12-29T04:45:17.060Z,-0.7
2016-12-29T04:46:17.096Z,-0.59
2016-12-29T04:47:17.060Z,-0.63
2016-12-29T04:48:17.084Z,-0.7
2016-12-29T04:49:17.069Z,-0.57
2016-12-29T04:50:17.080Z,-0.51
2016-12-29T04:51:17.067Z,-0.51
2016-12-29T04:52:17.087Z,-0.63
2016-12-29T04:53:17.109Z,-0.65
2016-12-29T04:54:17.083Z,-0.72
2016-12-29T04:55:17.071Z,-0.69
2016-12-29T04:56:17.077Z,-0.5
2016-12-29T04:57:17.113Z,-0.69
2016-12-29T04:58:17.106Z,-0.77
2016-12-29T04:59:17.070Z,-0.68
2016-12-29T05:00:17.090Z,-0.83
2016-12-29T05:01:17.083Z,-0.68
2016-12-29T05:02:17.076Z,-0.8
2016-12-29T05:03:17.097Z,-0.83
2016-12-29T05:04:17.074Z,-0.77
2016-12-29T05:05:17.080Z,-0.83
2016-12-29T05:06:17.074Z,-0.68
2016-12-29T05:07:17.076Z,-0.8
2016-12-29T05:08:17.103Z,-0.8
2016-12-29T05:09:17.064Z,-0.72
2016-12-29T05:10:17.085Z,-0.89
2016-12-29T05:11:17.062Z,-0.75
2016-12-29T05:12:17.070Z,-0.91
2016-12-29T05:13:17.121Z,-0.83
2016-12-29T05:14:17.094Z,-0.86
2016-12-29T05:15:17.105Z,-0.75
2016-12-29T05:16:17.093Z,-0.87
2016-12-29T05:17:17.102Z,-0.83
2016-12-29T05:18:17.094Z,-0.86
2016-12-29T05:19:17.127Z,-0.78
2016-12-29T05:20:17.092Z,-0.78
2016-12-29T05:21:17.142Z,-0.8
2016-12-29T05:22:17.106Z,-0.81
2016-12-29T05:23:17.110Z,-0.86
2016-12-29T05:24:17.116Z,-0.89
2016-12-29T05:25:17.099Z,-0.86
2016-12-29T05:26:17.160Z,-0.91
2016-12-29T05:27:17.085Z,-0.77
2016-12-29T05:28:17.119Z,-0.92
2016-12-29T05:29:17.098Z,-0.83
2016-12-29T05:30:17.130Z,-0.83
2016-12-29T05:31:17.142Z,-0.73
2016-12-29T05:32:17.100Z,-0.87
2016-12-29T05:33:17.092Z,-0.95
2016-12-29T05:34:17.089Z,-0.91
2016-12-29T05:35:17.116Z,-0.97
2016-12-29T05:36:17.102Z,-0.83
2016-12-29T05:37:17.124Z,-0.86
2016-12-29T05:38:17.102Z,-0.94
2016-12-29T05:39:17.095Z,-0.75
2016-12-29T05:40:17.118Z,-0.97
2016-12-29T05:41:17.116Z,-1.05
2016-12-29T05:42:17.122Z,-0.81
2016-12-29T05:43:17.882Z,-0.89
2016-12-29T05:44:17.112Z,-0.84
2016-12-29T05:45:17.103Z,-0.97
2016-12-29T05:46:17.096Z,-0.87
2016-12-29T05:47:17.110Z,-0.94
2016-12-29T05:48:17.129Z,-0.91
2016-12-29T05:49:17.101Z,-0.94
2016-12-29T05:50:17.099Z,-0.97
2016-12-29T05:51:17.106Z,-0.97
2016-12-29T05:52:17.105Z,-1.05
2016-12-29T05:53:17.127Z,-0.91
2016-12-29T05:54:17.109Z,-1.05
2016-12-29T05:55:17.097Z,-0.94
2016-12-29T05:56:17.105Z,-0.95
2016-12-29T05:57:17.112Z,-1.06
2016-12-29T05:58:17.147Z,-1.06
2016-12-29T05:59:17.110Z,-1.03
2016-12-29T06:00:17.131Z,-1.05
2016-12-29T06:01:17.114Z,-1.17
2016-12-29T06:02:17.131Z,-1.05
2016-12-29T06:03:17.138Z,-1.06
2016-12-29T06:04:17.091Z,-1.18
2016-12-29T06:05:17.122Z,-1.03
2016-12-29T06:06:17.113Z,-1.07
2016-12-29T06:07:17.108Z,-1.21
2016-12-29T06:08:17.145Z,-1.07
2016-12-29T06:09:17.126Z,-0.99
2016-12-29T06:10:17.126Z,-1.06
2016-12-29T06:11:17.149Z,-1.07
2016-12-29T06:12:17.147Z,-1.09
2016-12-29T06:13:17.250Z,-1.06
2016-12-29T06:14:17.126Z,-1.07
2016-12-29T06:15:17.118Z,-1.02
2016-12-29T06:16:17.104Z,-1.1
2016-12-29T06:17:17.114Z,-1.07
2016-12-29T06:18:17.173Z,-1.06
2016-12-29T06:19:17.114Z,-1.1
2016-12-29T06:20:17.109Z,-1.06
2016-12-29T06:21:17.103Z,-1.05
2016-12-29T06:22:17.123Z,-1.09
2016-12-29T06:23:17.145Z,-1.07
2016-12-29T06:24:17.141Z,-1.06
2016-12-29T06:25:17.132Z,-1.12
2016-12-29T06:26:17.110Z,-1.06
2016-12-29T06:27:17.117Z,-1.06
2016-12-29T06:28:17.138Z,-1.02
2016-12-29T06:29:17.129Z,-1.03
2016-12-29T06:30:17.122Z,-1.17
2016-12-29T06:31:17.130Z,-1.27
2016-12-29T06:32:17.151Z,-0.97
2016-12-29T06:33:17.147Z,-1.07
2016-12-29T06:34:17.124Z,-1.07
2016-12-29T06:35:17.145Z,-1.02
2016-12-29T06:36:17.136Z,-1.05
2016-12-29T06:37:17.189Z,-1.06
2016-12-29T06:38:17.151Z,-1.13
2016-12-29T06:39:17.136Z,-1.12
2016-12-29T06:40:17.147Z,-1.06
2016-12-29T06:41:17.154Z,-1.09
2016-12-29T06:42:17.152Z,-1.05
2016-12-29T06:43:17.157Z,-1.15
2016-12-29T06:44:17.179Z,-1.09
2016-12-29T06:45:17.158Z,-0.99
2016-12-29T06:46:17.190Z,-1
2016-12-29T06:47:17.198Z,-1.09
2016-12-29T06:48:17.147Z,-1.06
2016-12-29T06:49:17.159Z,-1.06
2016-12-29T06:50:17.145Z,-1.06
2016-12-29T06:51:17.182Z,-1.05
2016-12-29T06:52:17.164Z,-1.12
2016-12-29T06:53:17.194Z,-1.21
2016-12-29T06:54:17.132Z,-1.06
2016-12-29T06:55:17.170Z,-1.05
2016-12-29T06:56:17.181Z,-1.06
2016-12-29T06:57:17.160Z,-1
2016-12-29T06:58:17.172Z,-1
2016-12-29T06:59:17.151Z,-1.05
2016-12-29T07:00:17.142Z,-1
2016-12-29T07:01:17.134Z,-0.97
2016-12-29T07:02:17.150Z,-0.99
2016-12-29T07:03:17.167Z,-1.05
2016-12-29T07:04:17.143Z,-1.06
2016-12-29T07:05:17.147Z,-1.02
2016-12-29T07:06:17.143Z,-1.1
2016-12-29T07:07:17.145Z,-1.05
2016-12-29T07:08:17.147Z,-1.02
2016-12-29T07:09:17.143Z,-1.03
2016-12-29T07:10:17.135Z,-1.06
2016-12-29T07:11:17.157Z,-1.07
2016-12-29T07:12:17.157Z,-1.18
2016-12-29T07:13:17.196Z,-1.05
2016-12-29T07:14:17.162Z,-1.18
2016-12-29T07:15:17.150Z,-1.17
2016-12-29T07:16:17.127Z,-1.12
2016-12-29T07:17:17.189Z,-1.07
2016-12-29T07:18:17.182Z,-1.15
2016-12-29T07:19:17.148Z,-1.13
2016-12-29T07:20:17.155Z,-1.09
2016-12-29T07:21:17.147Z,-1.17
2016-12-29T07:22:17.186Z,-1.27
2016-12-29T07:23:17.186Z,-1.15
2016-12-29T07:24:17.138Z,-1.12
2016-12-29T07:25:17.159Z,-1.2
2016-12-29T07:26:17.210Z,-1.15
2016-12-29T07:27:17.230Z,-1.3
2016-12-29T07:28:17.188Z,-1.28
2016-12-29T07:29:17.148Z,-1.28
2016-12-29T07:30:17.176Z,-1.31
2016-12-29T07:31:17.169Z,-1.15
2016-12-29T07:32:17.221Z,-1.24
2016-12-29T07:33:17.181Z,-1.28
2016-12-29T07:34:17.188Z,-1.38
2016-12-29T07:35:17.164Z,-1.28
2016-12-29T07:36:17.188Z,-1.24
2016-12-29T07:37:17.305Z,-1.35
2016-12-29T07:38:17.224Z,-1.24
2016-12-29T07:39:17.200Z,-1.23
2016-12-29T07:40:17.188Z,-1.31
2016-12-29T07:41:17.177Z,-1.27
2016-12-29T07:42:17.229Z,-1.27
2016-12-29T07:43:17.239Z,-1.3
2016-12-29T07:44:17.207Z,-1.2
2016-12-29T07:45:17.199Z,-1.27
2016-12-29T07:46:17.173Z,-1.18
2016-12-29T07:47:17.258Z,-1.33
2016-12-29T07:48:17.191Z,-1.18
2016-12-29T07:49:17.181Z,-1.21
2016-12-29T07:50:17.215Z,-1.21
2016-12-29T07:51:17.217Z,-1.21
2016-12-29T07:52:17.260Z,-1.1
2016-12-29T07:53:17.237Z,-1.3
2016-12-29T07:54:17.187Z,-1.35
2016-12-29T07:55:17.160Z,-1.18
2016-12-29T07:56:17.170Z,-1.35
2016-12-29T07:57:17.235Z,-1.21
2016-12-29T07:58:17.193Z,-1.24
2016-12-29T07:59:17.191Z,-1.13
2016-12-29T08:00:17.177Z,-1.15
2016-12-29T08:01:17.173Z,-1.39
2016-12-29T08:02:17.225Z,-1.25
2016-12-29T08:03:17.172Z,-1.18
2016-12-29T08:04:17.180Z,-1.17
2016-12-29T08:05:17.161Z,-1.13
2016-12-29T08:06:17.193Z,-1.24
2016-12-29T08:07:17.215Z,-1.09
2016-12-29T08:08:17.205Z,-1.18
2016-12-29T08:09:17.186Z,-1.13
2016-12-29T08:10:17.237Z,-1.09
2016-12-29T08:11:17.194Z,-1.13
2016-12-29T08:12:17.219Z,-1.17
2016-12-29T08:13:17.271Z,-1.05
2016-12-29T08:14:17.231Z,-1.18
2016-12-29T08:15:17.197Z,-1.06
2016-12-29T08:16:17.218Z,-1.12
2016-12-29T08:17:17.252Z,-0.97
2016-12-29T08:18:17.246Z,-1.17
2016-12-29T08:19:17.243Z,-1.03
2016-12-29T08:20:17.230Z,-1.09
2016-12-29T08:21:17.245Z,-1.06
2016-12-29T08:22:17.226Z,-1.02
2016-12-29T08:23:17.225Z,-1.09
2016-12-29T08:24:17.212Z,-1.09
2016-12-29T08:25:17.218Z,-0.97
2016-12-29T08:26:17.188Z,-1.07
2016-12-29T08:27:17.208Z,-1.15
2016-12-29T08:28:17.199Z,-0.89
2016-12-29T08:29:17.230Z,-0.91
2016-12-29T08:30:17.195Z,-0.99
2016-12-29T08:31:17.188Z,-0.92
2016-12-29T08:32:17.208Z,-0.89
2016-12-29T08:33:17.201Z,-0.8
2016-12-29T08:34:17.200Z,-0.75
2016-12-29T08:35:17.201Z,-0.77
2016-12-29T08:36:17.195Z,-0.78
2016-12-29T08:37:17.214Z,-0.65
2016-12-29T08:38:17.220Z,-0.77
2016-12-29T08:39:17.197Z,-0.52
2016-12-29T08:40:17.203Z,-0.7
2016-12-29T08:41:17.219Z,-0.7
2016-12-29T08:42:17.204Z,-0.52
2016-12-29T08:43:17.211Z,-0.62
2016-12-29T08:44:17.195Z,-0.68
2016-12-29T08:45:17.209Z,-0.54
2016-12-29T08:46:17.214Z,-0.54
2016-12-29T08:47:17.197Z,-0.55
2016-12-29T08:48:17.219Z,-0.5
2016-12-29T08:49:17.181Z,-0.48
2016-12-29T08:50:17.232Z,-0.52
2016-12-29T08:51:17.180Z,-0.45
2016-12-29T08:52:17.187Z,-0.39
2016-12-29T08:53:17.225Z,-0.37
2016-12-29T08:54:17.202Z,-0.36
2016-12-29T08:55:17.223Z,-0.36
2016-12-29T08:56:17.199Z,-0.26
2016-12-29T08:57:17.230Z,-0.24
2016-12-29T08:58:17.242Z,-0.33
2016-12-29T08:59:17.205Z,-0.34
2016-12-29T09:00:17.195Z,-0.15
2016-12-29T09:01:17.217Z,-0.12
2016-12-29T09:02:17.195Z,-0.13
2016-12-29T09:03:17.493Z,-0.12
2016-12-29T09:04:17.206Z,0.02
2016-12-29T09:05:17.190Z,0.05
2016-12-29T09:06:17.226Z,-0.04
2016-12-29T09:07:17.227Z,0.05
2016-12-29T09:08:17.252Z,0.03
2016-12-29T09:09:17.210Z,0.2
2016-12-29T09:10:17.215Z,0.1
2016-12-29T09:11:17.205Z,0.12
2016-12-29T09:12:17.213Z,0.18
2016-12-29T09:13:17.240Z,0.05
2016-12-29T09:14:17.230Z,0.25
2016-12-29T09:15:17.258Z,0.25
2016-12-29T09:16:17.226Z,0.36
2016-12-29T09:17:17.220Z,0.39
2016-12-29T09:18:17.240Z,0.36
2016-12-29T09:19:17.217Z,0.42
2016-12-29T09:20:17.223Z,0.48
2016-12-29T09:21:17.242Z,0.45
2016-12-29T09:22:17.249Z,0.51
2016-12-29T09:23:17.239Z,0.53
2016-12-29T09:24:17.263Z,0.57
2016-12-29T09:25:17.257Z,0.51
2016-12-29T09:26:17.233Z,0.67
2016-12-29T09:27:17.237Z,0.71
2016-12-29T09:28:17.244Z,0.75
2016-12-29T09:29:17.250Z,0.71
2016-12-29T09:30:17.227Z,0.85
2016-12-29T09:31:17.234Z,0.71
2016-12-29T09:32:17.290Z,0.72
2016-12-29T09:33:17.234Z,0.67
2016-12-29T09:34:17.233Z,0.78
2016-12-29T09:35:17.239Z,0.92
2016-12-29T09:36:17.235Z,1
2016-12-29T09:37:17.226Z,1.04
2016-12-29T09:38:17.248Z,1.03
2016-12-29T09:39:17.209Z,1.07
2016-12-29T09:40:17.216Z,1.15
2016-12-29T09:41:17.238Z,1.26
2016-12-29T09:42:17.230Z,1.18
2016-12-29T09:43:17.250Z,1.18
2016-12-29T09:44:17.229Z,1.22
2016-12-29T09:45:17.278Z,1.37
2016-12-29T09:46:17.246Z,1.39
2016-12-29T09:47:17.240Z,1.37
2016-12-29T09:48:17.274Z,1.46
2016-12-29T09:49:17.239Z,1.42
2016-12-29T09:50:17.255Z,1.47
2016-12-29T09:51:17.283Z,1.46
2016-12-29T09:52:17.244Z,1.51
2016-12-29T09:53:17.248Z,1.65
2016-12-29T09:54:17.243Z,1.58
2016-12-29T09:55:17.335Z,1.62
2016-12-29T09:56:17.297Z,1.68
2016-12-29T09:57:17.289Z,1.76
2016-12-29T09:58:17.254Z,1.65
2016-12-29T09:59:17.263Z,1.76
2016-12-29T10:00:17.242Z,1.82
2016-12-29T10:01:17.225Z,1.85
2016-12-29T10:02:17.240Z,1.8
2016-12-29T10:03:17.256Z,1.87
2016-12-29T10:04:17.250Z,1.82
2016-12-29T10:05:17.255Z,2.02
2016-12-29T10:06:17.241Z,1.91
2016-12-29T10:07:17.270Z,2.04
2016-12-29T10:08:17.284Z,2.16
2016-12-29T10:09:17.249Z,2.19
2016-12-29T10:10:17.268Z,2.16
2016-12-29T10:11:17.255Z,2.19
2016-12-29T10:12:17.285Z,2.3
2016-12-29T10:13:17.303Z,2.31
2016-12-29T10:14:17.281Z,2.44
2016-12-29T10:15:17.243Z,2.3
2016-12-29T10:16:17.250Z,2.38
2016-12-29T10:17:17.263Z,2.37
2016-12-29T10:18:17.259Z,2.49
2016-12-29T10:19:17.250Z,2.44
2016-12-29T10:20:17.247Z,2.45
2016-12-29T10:21:17.239Z,2.53
2016-12-29T10:22:17.272Z,2.41
2016-12-29T10:23:17.238Z,2.64
2016-12-29T10:24:17.270Z,2.55
2016-12-29T10:25:17.249Z,2.56
2016-12-29T10:26:17.286Z,2.52
2016-12-29T10:27:17.260Z,2.58
2016-12-29T10:28:17.275Z,2.74
2016-12-29T10:29:17.257Z,2.71
2016-12-29T10:30:17.265Z,2.61
2016-12-29T10:31:17.273Z,2.67
2016-12-29T10:32:17.264Z,2.79
2016-12-29T10:33:17.273Z,2.74
2016-12-29T10:34:17.293Z,2.88
2016-12-29T10:35:17.265Z,2.84
2016-12-29T10:36:17.263Z,2.89
2016-12-29T10:37:17.263Z,2.79
2016-12-29T10:38:17.320Z,2.7
2016-12-29T10:39:17.277Z,2.95
2016-12-29T10:40:17.307Z,2.91
2016-12-29T10:41:17.289Z,2.91
2016-12-29T10:42:17.283Z,2.98
2016-12-29T10:43:17.288Z,3.02
2016-12-29T10:44:17.292Z,3.12
2016-12-29T10:45:17.279Z,3.13
2016-12-29T10:46:17.344Z,3.05
2016-12-29T10:47:17.296Z,3.1
2016-12-29T10:48:17.317Z,3.1
2016-12-29T10:49:17.413Z,3.3
2016-12-29T10:50:17.350Z,3.27
2016-12-29T10:51:17.325Z,3.25
2016-12-29T10:52:17.331Z,3.33
2016-12-29T10:53:17.338Z,3.27
2016-12-29T10:54:17.325Z,3.27
2016-12-29T10:55:17.301Z,3.21
2016-12-29T10:56:17.287Z,3.25
2016-12-29T10:57:17.300Z,3.49
2016-12-29T10:58:17.280Z,3.31
2016-12-29T10:59:17.286Z,3.39
2016-12-29T11:00:17.271Z,3.43
2016-12-29T11:01:17.305Z,3.54
2016-12-29T11:02:17.306Z,3.49
2016-12-29T11:03:17.287Z,3.49
2016-12-29T11:04:17.285Z,3.53
2016-12-29T11:05:17.278Z,3.5
2016-12-29T11:06:17.435Z,3.67
2016-12-29T11:07:17.354Z,3.49
2016-12-29T11:08:17.484Z,3.62
2016-12-29T11:09:17.323Z,3.67
2016-12-29T11:10:17.274Z,3.67
2016-12-29T11:11:17.288Z,3.72
2016-12-29T11:12:17.294Z,3.72
2016-12-29T11:13:17.318Z,3.71
2016-12-29T11:14:17.304Z,3.72
2016-12-29T11:15:17.292Z,3.61
2016-12-29T11:16:17.360Z,3.86
2016-12-29T11:17:17.318Z,3.68
2016-12-29T11:18:17.286Z,3.89
2016-12-29T11:19:17.308Z,3.88
2016-12-29T11:20:17.346Z,3.9
2016-12-29T11:21:17.316Z,3.88
2016-12-29T11:22:17.312Z,3.9
2016-12-29T11:23:17.312Z,4.04
2016-12-29T11:24:17.308Z,4
2016-12-29T11:25:17.319Z,3.98
2016-12-29T11:26:17.335Z,3.92
2016-12-29T11:27:17.364Z,4.08
2016-12-29T11:28:17.319Z,4.08
2016-12-29T11:29:17.643Z,4.24
2016-12-29T11:30:17.317Z,4.18
2016-12-29T11:31:17.325Z,4.32
2016-12-29T11:32:17.902Z,4.18
2016-12-29T11:33:17.310Z,4.32
2016-12-29T11:34:17.331Z,4.4
2016-12-29T11:35:17.338Z,4.37
2016-12-29T11:36:17.322Z,4.29
2016-12-29T11:37:17.351Z,4.18
2016-12-29T11:38:17.358Z,4.26
2016-12-29T11:39:17.324Z,4.36
2016-12-29T11:40:17.329Z,4.4
2016-12-29T11:41:17.350Z,4.24
2016-12-29T11:42:17.336Z,4.47
2016-12-29T11:43:17.343Z,4.39
2016-12-29T11:44:17.374Z,4.51
2016-12-29T11:45:17.321Z,4.44
2016-12-29T11:46:17.343Z,4.36
2016-12-29T11:47:17.361Z,4.54
2016-12-29T11:48:17.341Z,4.51
2016-12-29T11:49:17.336Z,4.44
2016-12-29T11:50:17.340Z,4.69
2016-12-29T11:51:17.348Z,4.44
2016-12-29T11:52:17.600Z,4.58
2016-12-29T11:53:17.338Z,4.51
2016-12-29T11:54:17.325Z,4.67
2016-12-29T11:55:17.331Z,4.73
2016-12-29T11:56:17.371Z,4.69
2016-12-29T11:57:17.345Z,4.64
2016-12-29T11:58:17.347Z,4.79
2016-12-29T11:59:17.345Z,4.64
2016-12-29T12:00:17.327Z,4.62
2016-12-29T12:01:17.343Z,4.77
2016-12-29T12:02:17.333Z,4.7
2016-12-29T12:03:17.340Z,4.77
2016-12-29T12:04:17.348Z,4.62
2016-12-29T12:05:17.369Z,4.73
2016-12-29T12:06:17.378Z,4.95
2016-12-29T12:07:17.342Z,4.76
2016-12-29T12:08:17.324Z,4.95
2016-12-29T12:09:17.336Z,4.76
2016-12-29T12:10:17.333Z,4.88
2016-12-29T12:11:17.338Z,4.89
2016-12-29T12:12:17.330Z,4.8
2016-12-29T12:13:17.353Z,4.91
2016-12-29T12:14:17.321Z,4.92
2016-12-29T12:15:17.344Z,4.99
2016-12-29T12:16:17.347Z,4.96
2016-12-29T12:17:17.335Z,4.92
2016-12-29T12:18:17.346Z,5.16
2016-12-29T12:19:17.333Z,5.1
2016-12-29T12:20:17.339Z,5.07
2016-12-29T12:21:17.330Z,5.27
2016-12-29T12:22:17.352Z,5.09
2016-12-29T12:23:17.344Z,5.1
2016-12-29T12:24:17.352Z,5.16
2016-12-29T12:25:17.361Z,5.19
2016-12-29T12:26:17.329Z,5.27
2016-12-29T12:27:17.344Z,5.07
2016-12-29T12:28:17.347Z,5.19
2016-12-29T12:29:17.349Z,5.25
2016-12-29T12:30:17.341Z,5.17
2016-12-29T12:31:17.372Z,5.27
2016-12-29T12:32:17.388Z,5.28
2016-12-29T12:33:17.419Z,5.19
2016-12-29T12:34:17.376Z,5.27
2016-12-29T12:35:17.487Z,5.14
2016-12-29T12:36:17.451Z,5.22
2016-12-29T12:37:17.379Z,5.3
2016-12-29T12:38:17.339Z,5.38
2016-12-29T12:39:17.370Z,5.28
2016-12-29T12:40:17.374Z,5.32
2016-12-29T12:41:17.589Z,5.37
2016-12-29T12:42:17.390Z,5.31
2016-12-29T12:43:17.368Z,5.28
2016-12-29T12:44:17.355Z,5.37
2016-12-29T12:45:17.547Z,5.32
2016-12-29T12:46:17.392Z,5.32
2016-12-29T12:47:17.354Z,5.31
2016-12-29T12:48:17.352Z,5.38
2016-12-29T12:49:17.373Z,5.37
2016-12-29T12:50:17.365Z,5.37
2016-12-29T12:51:17.372Z,5.28
2016-12-29T12:52:17.647Z,5.22
2016-12-29T12:53:17.624Z,5.35
2016-12-29T12:54:17.403Z,5.32
2016-12-29T12:55:17.388Z,5.35
2016-12-29T12:56:17.375Z,5.4
2016-12-29T12:57:17.640Z,5.4
2016-12-29T12:58:17.393Z,5.2
2016-12-29T12:59:19.400Z,5.32
2016-12-29T13:00:17.370Z,5.48
2016-12-29T13:01:17.365Z,5.31
2016-12-29T13:02:17.373Z,5.31
2016-12-29T13:03:17.395Z,5.31
2016-12-29T13:04:17.384Z,5.41
2016-12-29T13:05:17.576Z,5.38
2016-12-29T13:06:17.397Z,5.34
2016-12-29T13:07:17.358Z,5.31
2016-12-29T13:08:17.369Z,5.34